createdAt,value
2017-11-14T00:00:32.862Z,99359.10
2017-11-14T00:03:07.403Z,99369.13
2017-11-14T00:05:41.783Z,99370.55
2017-11-14T00:08:16.245Z,99369.22
2017-11-14T00:10:50.730Z,99376.90
2017-11-14T00:13:25.381Z,99380.58
2017-11-14T00:16:00.263Z,99386.03
2017-11-14T00:18:34.814Z,99387.23
2017-11-14T00:21:09.278Z,99389.09
2017-11-14T00:23:43.808Z,99384.29
2017-11-14T00:26:18.262Z,99397.13
2017-11-14T00:28:52.646Z,99405.78
2017-11-14T00:31:27.065Z,99418.09
2017-11-14T00:34:01.538Z,99410.91
2017-11-14T00:36:36.061Z,99421.50
2017-11-14T00:39:10.919Z,99424.05
2017-11-14T00:41:45.342Z,99440.73
2017-11-14T00:44:19.779Z,99457.38
2017-11-14T00:46:54.208Z,99462.59
2017-11-14T00:49:28.660Z,99467.61
2017-11-14T00:52:03.371Z,99461.77
2017-11-14T00:54:37.750Z,99481.86
2017-11-14T00:57:12.247Z,99489.06
2017-11-14T00:59:46.858Z,99480.93
2017-11-14T01:02:21.264Z,99485.05
2017-11-14T01:04:55.751Z,99477.08
2017-11-14T01:07:30.223Z,99493.26
2017-11-14T01:10:14.039Z,99499.16
2017-11-14T01:12:48.498Z,99503.05
2017-11-14T01:15:23.388Z,99512.66
2017-11-14T01:17:57.953Z,99508.84
2017-11-14T01:20:32.407Z,99510.88
2017-11-14T01:23:06.827Z,99513.70
2017-11-14T01:25:41.282Z,99509.41
2017-11-14T01:28:15.820Z,99515.33
2017-11-14T01:30:50.199Z,99513.99
2017-11-14T01:33:24.716Z,99507.85
2017-11-14T01:35:59.121Z,99520.13
2017-11-14T01:38:33.644Z,99515.73
2017-11-14T01:41:08.111Z,99505.55
2017-11-14T01:43:42.759Z,99518.03
2017-11-14T01:46:17.240Z,99527.46
2017-11-14T01:48:51.751Z,99528.53
2017-11-14T01:51:26.256Z,99533.30
2017-11-14T01:54:00.775Z,99523.88
2017-11-14T01:56:35.286Z,99520.76
2017-11-14T01:59:09.735Z,99517.17
2017-11-14T02:01:44.195Z,99524.12
2017-11-14T02:04:18.770Z,99504.42
2017-11-14T02:06:52.904Z,99503.30
2017-11-14T02:09:27.097Z,99496.28
2017-11-14T02:12:01.563Z,99510.67
2017-11-14T02:14:36.089Z,99504.48
2017-11-14T02:17:10.541Z,99507.55
2017-11-14T02:19:44.733Z,99490.55
2017-11-14T02:22:19.203Z,99516.72
2017-11-14T02:24:53.588Z,99533.85
2017-11-14T02:27:27.867Z,99536.22
2017-11-14T02:30:02.166Z,99537.48
2017-11-14T02:32:36.643Z,99535.34
2017-11-14T02:35:11.093Z,99549.58
2017-11-14T02:37:45.271Z,99553.00
2017-11-14T02:40:19.386Z,99553.46
2017-11-14T02:42:53.657Z,99545.47
2017-11-14T02:45:27.707Z,99559.70
2017-11-14T02:48:02.232Z,99549.98
2017-11-14T02:50:36.342Z,99555.14
2017-11-14T02:53:10.865Z,99542.96
2017-11-14T02:55:45.515Z,99550.38
2017-11-14T02:58:20.368Z,99556.41
2017-11-14T03:00:55.187Z,99566.93
2017-11-14T03:03:29.760Z,99555.93
2017-11-14T03:06:04.312Z,99568.61
2017-11-14T03:08:38.944Z,99560.92
2017-11-14T03:11:13.789Z,99573.78
2017-11-14T03:13:48.375Z,99580.24
2017-11-14T03:16:22.844Z,99597.85
2017-11-14T03:18:57.446Z,99590.48
2017-11-14T03:21:31.843Z,99600.22
2017-11-14T03:24:07.043Z,99593.97
2017-11-14T03:26:41.585Z,99587.02
2017-11-14T03:29:16.083Z,99579.68
2017-11-14T03:31:50.260Z,99585.92
2017-11-14T03:34:24.835Z,99590.63
2017-11-14T03:36:58.871Z,99595.41
2017-11-14T03:39:34.153Z,99596.58
2017-11-14T03:42:08.709Z,99606.20
2017-11-14T03:44:42.922Z,99609.64
2017-11-14T03:47:17.664Z,99604.87
2017-11-14T03:49:52.211Z,99613.48
2017-11-14T03:52:26.324Z,99618.18
2017-11-14T03:55:00.748Z,99616.60
2017-11-14T03:57:35.214Z,99626.22
2017-11-14T04:00:15.023Z,99620.13
2017-11-14T04:02:49.551Z,99626.68
2017-11-14T04:05:23.982Z,99622.58
2017-11-14T04:07:58.624Z,99623.83
2017-11-14T04:10:32.917Z,99632.06
2017-11-14T04:13:07.408Z,99635.89
2017-11-14T04:15:41.996Z,99636.30
2017-11-14T04:18:16.579Z,99639.18
2017-11-14T04:20:51.436Z,99617.83
2017-11-14T04:23:26.008Z,99639.53
2017-11-14T04:26:00.473Z,99654.75
2017-11-14T04:28:35.075Z,99612.14
2017-11-14T04:31:09.479Z,99660.13
2017-11-14T04:33:43.966Z,99663.72
2017-11-14T04:36:18.400Z,99674.20
2017-11-14T04:38:52.844Z,99672.67
2017-11-14T04:41:27.232Z,99684.60
2017-11-14T04:44:01.679Z,99677.77
2017-11-14T04:46:36.151Z,99683.05
2017-11-14T04:49:10.807Z,99696.27
2017-11-14T04:51:45.219Z,99686.89
2017-11-14T04:54:19.628Z,99686.21
2017-11-14T04:56:54.047Z,99687.25
2017-11-14T04:59:28.603Z,99690.02
2017-11-14T05:02:03.071Z,99695.08
2017-11-14T05:04:37.595Z,99694.57
2017-11-14T05:07:12.374Z,99704.30
2017-11-14T05:09:46.771Z,99714.30
2017-11-14T05:12:21.170Z,99712.49
2017-11-14T05:14:55.788Z,99715.05
2017-11-14T05:17:30.236Z,99720.49
2017-11-14T05:20:13.500Z,99726.42
2017-11-14T05:22:47.909Z,99734.89
2017-11-14T05:25:22.750Z,99732.28
2017-11-14T05:27:57.360Z,99744.67
2017-11-14T05:30:31.763Z,99738.27
2017-11-14T05:33:06.163Z,99747.87
2017-11-14T05:35:40.658Z,99753.48
2017-11-14T05:38:15.528Z,99765.02
2017-11-14T05:40:49.999Z,99748.31
2017-11-14T05:43:24.432Z,99762.62
2017-11-14T05:45:58.693Z,99770.59
2017-11-14T05:48:33.059Z,99769.27
2017-11-14T05:51:07.652Z,99774.38
2017-11-14T05:53:42.176Z,99778.89
2017-11-14T05:56:16.595Z,99803.84
2017-11-14T05:58:51.117Z,99793.30
2017-11-14T06:01:25.583Z,99799.52
2017-11-14T06:04:00.199Z,99802.45
2017-11-14T06:06:34.668Z,99807.37
2017-11-14T06:09:09.123Z,99808.18
2017-11-14T06:11:43.572Z,99821.71
2017-11-14T06:14:18.137Z,99811.45
2017-11-14T06:16:52.544Z,99826.05
2017-11-14T06:19:26.931Z,99834.34
2017-11-14T06:22:01.483Z,99825.95
2017-11-14T06:24:35.896Z,99839.58
2017-11-14T06:27:10.379Z,99838.20
2017-11-14T06:29:44.999Z,99837.86
2017-11-14T06:32:19.404Z,99850.25
2017-11-14T06:34:54.015Z,99847.20
2017-11-14T06:37:28.488Z,99852.84
2017-11-14T06:40:03.189Z,99846.55
2017-11-14T06:42:42.779Z,99857.56
2017-11-14T06:45:17.243Z,99852.59
2017-11-14T06:47:52.363Z,99862.70
2017-11-14T06:50:26.815Z,99868.08
2017-11-14T06:53:01.407Z,99864.88
2017-11-14T06:55:36.044Z,99881.55
2017-11-14T06:58:10.588Z,99890.02
2017-11-14T07:00:45.092Z,99884.58
2017-11-14T07:03:19.498Z,99882.71
2017-11-14T07:05:53.898Z,99881.12
2017-11-14T07:08:28.487Z,99884.45
2017-11-14T07:11:02.987Z,99892.51
2017-11-14T07:13:37.587Z,99905.11
2017-11-14T07:16:12.064Z,99900.52
2017-11-14T07:18:46.703Z,99908.03
2017-11-14T07:21:21.132Z,99891.41
2017-11-14T07:23:55.421Z,99906.66
2017-11-14T07:26:29.856Z,99916.80
2017-11-14T07:29:04.437Z,99909.28
2017-11-14T07:31:38.718Z,99913.12
2017-11-14T07:34:13.414Z,99916.59
2017-11-14T07:36:47.911Z,99923.09
2017-11-14T07:39:24.503Z,99924.24
2017-11-14T07:41:59.169Z,99923.56
2017-11-14T07:44:33.699Z,99931.75
2017-11-14T07:47:08.154Z,99935.39
2017-11-14T07:49:42.633Z,99936.24
2017-11-14T07:52:17.096Z,99926.78
2017-11-14T07:54:51.614Z,99938.55
2017-11-14T07:57:26.023Z,99937.45
2017-11-14T08:00:00.614Z,99939.64
2017-11-14T08:02:35.498Z,99935.39
2017-11-14T08:05:13.667Z,99942.88
2017-11-14T08:07:48.089Z,99950.48
2017-11-14T08:10:22.555Z,99925.58
2017-11-14T08:12:57.178Z,99926.80
2017-11-14T08:15:31.575Z,99946.22
2017-11-14T08:18:06.003Z,99950.78
2017-11-14T08:20:40.485Z,99955.02
2017-11-14T08:23:14.935Z,99951.38
2017-11-14T08:25:49.413Z,99946.98
2017-11-14T08:28:23.969Z,99950.38
2017-11-14T08:30:58.732Z,99950.73
2017-11-14T08:33:33.351Z,99953.56
2017-11-14T08:36:07.731Z,99953.09
2017-11-14T08:38:42.252Z,99948.11
2017-11-14T08:41:16.317Z,99956.20
2017-11-14T08:43:50.758Z,99967.03
2017-11-14T08:46:25.278Z,99939.70
2017-11-14T08:49:01.032Z,99970.89
2017-11-14T08:51:35.454Z,99965.05
2017-11-14T08:54:09.953Z,99970.02
2017-11-14T08:56:44.362Z,99974.98
2017-11-14T08:59:18.459Z,99969.09
2017-11-14T09:01:52.560Z,99981.14
2017-11-14T09:04:26.956Z,99970.80
2017-11-14T09:07:01.921Z,99979.79
2017-11-14T09:09:36.455Z,99980.77
2017-11-14T09:12:11.015Z,99977.16
2017-11-14T09:14:45.459Z,99978.48
2017-11-14T09:17:19.831Z,99997.23
2017-11-14T09:19:54.146Z,99988.73
2017-11-14T09:22:28.589Z,99987.64
2017-11-14T09:25:03.138Z,99984.72
2017-11-14T09:27:42.800Z,99968.38
2017-11-14T09:30:16.842Z,99984.52
2017-11-14T09:32:50.943Z,99982.50
2017-11-14T09:35:25.443Z,99982.97
2017-11-14T09:37:59.716Z,99989.52
2017-11-14T09:40:33.837Z,99990.42
2017-11-14T09:43:08.316Z,100001.34
2017-11-14T09:45:42.646Z,99995.58
2017-11-14T09:48:17.252Z,99997.59
2017-11-14T09:50:51.455Z,99992.41
2017-11-14T09:53:25.626Z,99982.48
2017-11-14T09:56:00.064Z,99999.34
2017-11-14T09:58:34.511Z,99997.60
2017-11-14T10:01:08.746Z,99972.03
2017-11-14T10:03:43.259Z,99974.64
2017-11-14T10:06:17.734Z,99970.66
2017-11-14T10:08:52.280Z,99972.84
2017-11-14T10:11:26.695Z,99973.84
2017-11-14T10:14:01.035Z,99967.86
2017-11-14T10:16:35.155Z,99970.80
2017-11-14T10:19:09.414Z,99953.53
2017-11-14T10:21:43.847Z,99962.30
2017-11-14T10:24:17.875Z,99959.81
2017-11-14T10:26:52.056Z,99941.30
2017-11-14T10:29:26.107Z,99959.73
2017-11-14T10:32:00.215Z,99946.01
2017-11-14T10:34:34.419Z,99948.61
2017-11-14T10:37:08.540Z,99939.55
2017-11-14T10:39:42.723Z,99942.58
2017-11-14T10:42:17.191Z,99958.83
2017-11-14T10:44:52.295Z,99948.29
2017-11-14T10:47:26.484Z,99950.77
2017-11-14T10:50:00.512Z,99949.99
2017-11-14T10:52:34.612Z,99958.27
2017-11-14T10:55:14.511Z,99953.70
2017-11-14T10:57:48.884Z,99957.26
2017-11-14T11:03:20.171Z,99936.77
2017-11-14T11:05:54.312Z,99953.02
2017-11-14T11:08:28.383Z,99954.20
2017-11-14T11:11:02.807Z,99950.08
2017-11-14T11:13:37.053Z,99936.33
2017-11-14T11:16:11.639Z,99944.64
2017-11-14T11:18:45.855Z,99941.89
2017-11-14T11:21:20.347Z,99948.66
2017-11-14T11:23:54.478Z,99931.49
2017-11-14T11:26:29.031Z,99936.20
2017-11-14T11:29:03.272Z,99940.83
2017-11-14T11:31:37.715Z,99932.17
2017-11-14T11:34:11.771Z,99924.30
2017-11-14T11:36:46.987Z,99927.73
2017-11-14T11:39:22.072Z,99925.52
2017-11-14T11:41:56.307Z,99916.19
2017-11-14T11:44:30.456Z,99914.22
2017-11-14T11:47:04.587Z,99916.22
2017-11-14T11:49:39.336Z,99915.55
2017-11-14T11:52:13.775Z,99924.73
2017-11-14T11:54:47.916Z,99924.98
2017-11-14T11:57:22.045Z,99934.78
2017-11-14T11:59:56.066Z,99931.11
2017-11-14T12:02:30.150Z,99915.07
2017-11-14T12:05:13.812Z,99919.70
2017-11-14T12:07:48.060Z,99902.03
2017-11-14T12:10:23.944Z,99907.31
2017-11-14T12:12:58.297Z,99909.34
2017-11-14T12:15:32.315Z,99907.34
2017-11-14T12:18:06.355Z,99894.72
2017-11-14T12:20:40.543Z,99904.97
2017-11-14T12:23:14.769Z,99849.04
2017-11-14T12:25:49.263Z,99900.52
2017-11-14T12:28:23.620Z,99902.84
2017-11-14T12:30:58.003Z,99905.02
2017-11-14T12:33:32.115Z,99891.86
2017-11-14T12:36:06.472Z,99895.53
2017-11-14T12:38:40.271Z,99897.00
2017-11-14T12:41:14.657Z,99860.94
2017-11-14T12:43:49.203Z,99906.27
2017-11-14T12:46:23.583Z,99890.18
2017-11-14T12:48:58.038Z,99906.91
2017-11-14T12:51:32.392Z,99902.72
2017-11-14T12:54:07.000Z,99912.52
2017-11-14T12:56:41.544Z,99915.28
2017-11-14T12:59:16.047Z,99908.87
2017-11-14T13:01:50.892Z,99906.55
2017-11-14T13:04:25.457Z,99897.05
2017-11-14T13:06:59.911Z,99909.62
2017-11-14T13:09:34.290Z,99904.95
2017-11-14T13:12:08.659Z,99902.42
2017-11-14T13:14:43.211Z,99908.36
2017-11-14T13:17:17.676Z,99908.30
2017-11-14T13:19:52.331Z,99907.83
2017-11-14T13:22:26.799Z,99922.98
2017-11-14T13:25:01.369Z,99908.94
2017-11-14T13:27:35.775Z,99920.05
2017-11-14T13:30:14.200Z,99917.71
2017-11-14T13:32:48.420Z,99917.75
2017-11-14T13:35:22.872Z,99925.44
2017-11-14T13:37:57.395Z,99930.18
2017-11-14T13:40:31.819Z,99924.89
2017-11-14T13:43:06.189Z,99925.80
2017-11-14T13:45:40.609Z,99927.00
2017-11-14T13:48:14.964Z,99931.98
2017-11-14T13:50:49.442Z,99938.63
2017-11-14T13:53:23.969Z,99942.72
2017-11-14T13:55:58.428Z,99943.45
2017-11-14T13:58:32.936Z,99944.84
2017-11-14T14:01:07.364Z,99941.16
2017-11-14T14:03:41.287Z,99942.65
2017-11-14T14:06:15.668Z,99929.88
2017-11-14T14:08:50.244Z,99938.84
2017-11-14T14:11:24.600Z,99939.37
2017-11-14T14:13:59.060Z,99942.72
2017-11-14T14:16:33.486Z,99937.30
2017-11-14T14:19:07.960Z,99952.31
2017-11-14T14:21:42.372Z,99950.44
2017-11-14T14:24:16.847Z,99948.22
2017-11-14T14:26:51.166Z,99955.30
2017-11-14T14:29:25.648Z,99956.79
2017-11-14T14:32:00.031Z,99971.03
2017-11-14T14:34:34.512Z,99966.91
2017-11-14T14:37:09.302Z,99962.20
2017-11-14T14:39:43.771Z,99968.66
2017-11-14T14:42:18.148Z,99963.38
2017-11-14T14:44:52.667Z,99963.56
2017-11-14T14:47:27.107Z,99968.86
2017-11-14T14:50:01.464Z,99972.47
2017-11-14T14:52:35.960Z,99981.34
2017-11-14T14:55:10.055Z,99984.53
2017-11-14T14:57:44.624Z,99983.61
2017-11-14T15:00:19.041Z,99982.34
2017-11-14T15:02:53.657Z,99985.73
2017-11-14T15:05:28.011Z,99988.61
2017-11-14T15:08:02.531Z,100001.80
2017-11-14T15:10:37.365Z,100001.38
2017-11-14T15:13:11.799Z,100008.31
2017-11-14T15:15:46.292Z,100013.84
2017-11-14T15:18:20.802Z,100014.30
2017-11-14T15:20:55.202Z,100018.98
2017-11-14T15:23:29.718Z,100021.09
2017-11-14T15:26:04.073Z,100023.57
2017-11-14T15:28:38.697Z,100025.10
2017-11-14T15:31:13.099Z,100036.35
2017-11-14T15:33:47.590Z,100039.03
2017-11-14T15:36:21.971Z,100039.84
2017-11-14T15:38:56.488Z,100040.20
2017-11-14T15:41:30.967Z,100036.19
2017-11-14T15:44:05.545Z,100055.97
2017-11-14T15:46:40.132Z,100053.66
2017-11-14T15:49:14.816Z,100054.85
2017-11-14T15:51:49.205Z,100058.58
2017-11-14T15:54:23.664Z,100056.64
2017-11-14T15:56:58.041Z,100059.50
2017-11-14T15:59:32.615Z,100062.34
2017-11-14T16:02:07.056Z,100074.76
2017-11-14T16:04:41.575Z,100070.59
2017-11-14T16:07:16.056Z,100070.09
2017-11-14T16:09:50.515Z,100072.44
2017-11-14T16:12:24.984Z,100072.44
2017-11-14T16:14:59.507Z,100078.18
2017-11-14T16:17:33.904Z,100078.91
2017-11-14T16:20:16.628Z,100076.11
2017-11-14T16:22:51.136Z,100098.41
2017-11-14T16:25:25.562Z,100098.08
2017-11-14T16:28:00.075Z,100102.30
2017-11-14T16:30:34.564Z,100097.42
2017-11-14T16:33:08.818Z,100102.02
2017-11-14T16:35:43.365Z,100104.07
2017-11-14T16:38:17.763Z,100110.06
2017-11-14T16:40:51.824Z,100109.75
2017-11-14T16:43:26.438Z,100110.57
2017-11-14T16:46:01.003Z,100123.94
2017-11-14T16:48:36.084Z,100124.73
2017-11-14T16:51:10.487Z,100122.19
2017-11-14T16:53:45.629Z,100135.05
2017-11-14T16:56:19.958Z,100128.84
2017-11-14T16:58:55.179Z,100143.31
2017-11-14T17:01:29.691Z,100148.33
2017-11-14T17:04:04.145Z,100159.44
2017-11-14T17:06:38.848Z,100157.76
2017-11-14T17:09:16.927Z,100154.94
2017-11-14T17:11:51.940Z,100161.59
2017-11-14T17:14:26.942Z,100132.44
2017-11-14T17:17:01.769Z,100161.76
2017-11-14T17:19:36.211Z,100157.47
2017-11-14T17:22:10.776Z,100156.72
2017-11-14T17:24:45.195Z,100163.89
2017-11-14T17:27:19.555Z,100158.23
2017-11-14T17:29:54.064Z,100152.91
2017-11-14T17:32:28.566Z,100151.34
2017-11-14T17:37:45.997Z,100153.53
2017-11-14T17:40:20.438Z,100156.22
2017-11-14T17:42:54.920Z,100161.52
2017-11-14T17:45:29.300Z,100159.53
2017-11-14T17:48:03.741Z,100163.50
2017-11-14T17:50:38.152Z,100162.03
2017-11-14T17:53:12.892Z,100145.17
2017-11-14T17:55:47.240Z,100159.77
2017-11-14T17:58:22.478Z,100162.53
2017-11-14T18:00:57.112Z,100169.92
2017-11-14T18:03:31.631Z,100167.09
2017-11-14T18:06:05.992Z,100151.14
2017-11-14T18:08:40.562Z,100161.38
2017-11-14T18:11:15.488Z,100164.81
2017-11-14T18:13:49.984Z,100164.48
2017-11-14T18:16:24.445Z,100157.95
2017-11-14T18:18:59.252Z,100169.66
2017-11-14T18:21:34.951Z,100169.94
2017-11-14T18:24:09.477Z,100169.86
2017-11-14T18:26:43.840Z,100172.28
2017-11-14T18:29:18.988Z,100164.75
2017-11-14T18:31:54.224Z,100160.09
2017-11-14T18:34:28.766Z,100162.73
2017-11-14T18:37:03.489Z,100154.41
2017-11-14T18:39:37.872Z,100162.49
2017-11-14T18:42:12.377Z,100167.55
2017-11-14T18:44:46.895Z,100168.98
2017-11-14T18:47:21.556Z,100172.57
2017-11-14T18:49:56.128Z,100183.09
2017-11-14T18:52:30.629Z,100174.78
2017-11-14T18:55:05.384Z,100177.81
2017-11-14T18:57:40.716Z,100187.82
2017-11-14T19:00:14.941Z,100186.48
2017-11-14T19:02:50.111Z,100189.17
2017-11-14T19:05:24.719Z,100189.56
2017-11-14T19:07:59.195Z,100188.31
2017-11-14T19:10:33.595Z,100183.22
2017-11-14T19:13:08.115Z,100185.16
2017-11-14T19:15:42.475Z,100187.88
2017-11-14T19:18:16.862Z,100189.02
2017-11-14T19:20:51.353Z,100188.54
2017-11-14T19:23:25.918Z,100182.05
2017-11-14T19:26:00.806Z,100190.25
2017-11-14T19:28:35.378Z,100185.34
2017-11-14T19:31:10.203Z,100188.05
2017-11-14T19:33:45.541Z,100176.20
2017-11-14T19:36:19.970Z,100173.69
2017-11-14T19:38:54.472Z,100176.69
2017-11-14T19:41:28.980Z,100185.83
2017-11-14T19:44:03.475Z,100188.78
2017-11-14T19:46:38.349Z,100192.95
2017-11-14T19:49:12.879Z,100190.91
2017-11-14T19:51:47.293Z,100187.66
2017-11-14T19:54:21.903Z,100171.91
2017-11-14T19:56:56.495Z,100201.97
2017-11-14T19:59:30.988Z,100197.06
2017-11-14T20:02:05.399Z,100196.13
2017-11-14T20:04:39.998Z,100191.44
2017-11-14T20:07:15.593Z,100191.90
2017-11-14T20:09:50.239Z,100194.34
2017-11-14T20:12:24.841Z,100189.03
2017-11-14T20:14:59.393Z,100184.52
2017-11-14T20:17:33.842Z,100179.02
2017-11-14T20:20:13.674Z,100179.10
2017-11-14T20:22:48.121Z,100184.20
2017-11-14T20:25:22.650Z,100180.11
2017-11-14T20:27:57.171Z,100187.27
2017-11-14T20:30:31.587Z,100184.51
2017-11-14T20:33:06.082Z,100183.37
2017-11-14T20:35:40.436Z,100189.72
2017-11-14T20:38:15.016Z,100194.61
2017-11-14T20:40:49.414Z,100192.16
2017-11-14T20:43:23.780Z,100190.00
2017-11-14T20:45:58.256Z,100191.05
2017-11-14T20:48:32.892Z,100197.07
2017-11-14T20:51:07.934Z,100201.30
2017-11-14T20:53:42.323Z,100203.45
2017-11-14T20:56:16.923Z,100210.27
2017-11-14T20:58:51.554Z,100203.70
2017-11-14T21:01:25.931Z,100209.80
2017-11-14T21:04:00.400Z,100213.13
2017-11-14T21:06:34.820Z,100220.05
2017-11-14T21:09:09.213Z,100211.18
2017-11-14T21:11:43.655Z,100208.62
2017-11-14T21:14:18.849Z,100213.35
2017-11-14T21:16:53.345Z,100214.80
2017-11-14T21:19:28.778Z,100212.56
2017-11-14T21:22:03.143Z,100181.47
2017-11-14T21:24:37.761Z,100207.30
2017-11-14T21:27:12.172Z,100210.20
2017-11-14T21:29:46.651Z,100206.13
2017-11-14T21:32:21.115Z,100202.23
2017-11-14T21:34:55.763Z,100200.42
2017-11-14T21:37:30.215Z,100203.59
2017-11-14T21:40:09.468Z,100219.53
2017-11-14T21:42:43.916Z,100202.86
2017-11-14T21:45:18.406Z,100193.91
2017-11-14T21:47:52.976Z,100199.03
2017-11-14T21:50:27.631Z,100209.45
2017-11-14T21:53:02.127Z,100206.37
2017-11-14T21:55:36.915Z,100201.71
2017-11-14T21:58:11.377Z,100208.28
2017-11-14T22:00:45.869Z,100215.79
2017-11-14T22:03:20.420Z,100216.64
2017-11-14T22:05:54.942Z,100216.65
2017-11-14T22:08:29.465Z,100217.89
2017-11-14T22:11:03.551Z,100213.17
2017-11-14T22:13:37.920Z,100210.84
2017-11-14T22:16:12.265Z,100210.94
2017-11-14T22:18:46.764Z,100213.09
2017-11-14T22:21:21.219Z,100220.46
2017-11-14T22:23:55.708Z,100225.06
2017-11-14T22:26:30.204Z,100223.63
2017-11-14T22:29:04.692Z,100227.22
2017-11-14T22:31:39.125Z,100233.45
2017-11-14T22:34:13.691Z,100239.58
2017-11-14T22:36:47.879Z,100233.98
2017-11-14T22:39:22.498Z,100236.23
2017-11-14T22:41:56.655Z,100236.84
2017-11-14T22:44:31.172Z,100240.09
2017-11-14T22:47:05.788Z,100235.83
2017-11-14T22:49:40.387Z,100231.23
2017-11-14T22:52:14.803Z,100228.67
2017-11-14T22:54:49.349Z,100228.87
2017-11-14T22:57:23.775Z,100231.23
2017-11-14T22:59:58.303Z,100229.19
2017-11-14T23:02:32.688Z,100233.36
2017-11-14T23:05:15.109Z,100225.30
2017-11-14T23:07:49.500Z,100233.98
2017-11-14T23:10:35.347Z,100224.98
2017-11-14T23:13:09.894Z,100226.02
2017-11-14T23:15:44.364Z,100226.12
2017-11-14T23:18:18.756Z,100227.35
2017-11-14T23:20:53.331Z,100221.12
2017-11-14T23:23:27.785Z,100224.78
2017-11-14T23:26:02.542Z,100217.45
2017-11-14T23:28:37.051Z,100217.64
2017-11-14T23:31:11.403Z,100217.77
2017-11-14T23:33:45.980Z,100215.90
2017-11-14T23:36:20.441Z,100219.09
2017-11-14T23:38:54.971Z,100216.13
2017-11-14T23:41:29.395Z,100219.38
2017-11-14T23:44:03.780Z,100220.61
2017-11-14T23:46:38.894Z,100216.63
2017-11-14T23:49:13.493Z,100214.07
2017-11-14T23:51:47.983Z,100222.95
2017-11-14T23:54:22.504Z,100214.89
2017-11-14T23:56:57.000Z,100216.03
2017-11-14T23:59:31.063Z,100214.06
